Terminal Aerodrome Forecast
Issued by NWS

Home | Current Version | Previous Version | Graphics & Text | Print | Product List | Glossary On
Versions: 1 2 3 4 5 6 7 8 9 10 11 12 13 14 15 16 17 18 19 20 21 22 23 24 25 26 27 28 29 30
171
FTUS43 KABR 241720
TAFATY
TAF
KATY 241720Z 2418/2518 15009KT P6SM SCT030 BKN040
     FM250100 14010KT P6SM FEW150
     FM251300 16015G22KT P6SM SCT200
     FM251600 18016G24KT P6SM BKN070=

USA.gov is the U.S. government's official web portal to all federal, state and local government web resources and services.